createdAt,value
2022-09-10T00:01:37.945Z,25.51
2022-09-10T00:04:11.955Z,25.29
2022-09-10T00:06:39.673Z,25.34
2022-09-10T00:09:08.344Z,25.29
2022-09-10T00:11:38.925Z,25.28
2022-09-10T00:14:09.518Z,25.31
2022-09-10T00:16:37.042Z,25.02
2022-09-10T00:19:04.935Z,24.96
2022-09-10T00:21:32.906Z,25.03
2022-09-10T00:24:02.276Z,25.06
2022-09-10T00:26:38.873Z,24.92
2022-09-10T00:29:09.390Z,24.96
2022-09-10T00:31:38.135Z,24.80
2022-09-10T00:34:07.150Z,24.88
2022-09-10T00:36:40.615Z,24.83
2022-09-10T00:39:14.281Z,24.90
2022-09-10T00:41:44.440Z,24.96
2022-09-10T00:44:43.105Z,24.95
2022-09-10T00:47:22.540Z,24.89
2022-09-10T00:50:17.503Z,24.81
2022-09-10T00:52:47.683Z,24.74
2022-09-10T00:55:17.637Z,24.79
2022-09-10T00:57:48.277Z,24.67
2022-09-10T01:00:16.734Z,24.64
2022-09-10T01:02:47.844Z,24.62
2022-09-10T01:05:16.075Z,24.65
2022-09-10T01:07:44.236Z,24.56
2022-09-10T01:10:20.754Z,24.54
2022-09-10T01:13:01.640Z,24.64
2022-09-10T01:15:47.338Z,24.62
2022-09-10T01:18:17.702Z,24.54
2022-09-10T01:21:03.381Z,24.62
2022-09-10T01:23:49.358Z,24.64
2022-09-10T01:27:07.108Z,24.68
2022-09-10T01:30:08.231Z,24.62
2022-09-10T01:32:59.653Z,24.67
2022-09-10T01:35:39.053Z,24.60
2022-09-10T01:38:13.643Z,24.60
2022-09-10T01:40:42.744Z,24.59
2022-09-10T01:43:14.259Z,24.58
2022-09-10T01:45:55.584Z,24.62
2022-09-10T01:48:43.407Z,24.64
2022-09-10T01:51:17.142Z,24.61
2022-09-10T01:54:16.734Z,24.68
2022-09-10T01:57:03.268Z,24.59
2022-09-10T01:59:54.744Z,24.57
2022-09-10T02:02:31.132Z,24.51
2022-09-10T02:05:01.608Z,24.51
2022-09-10T02:07:35.515Z,24.52
2022-09-10T02:10:08.505Z,24.53
2022-09-10T02:12:42.621Z,24.58
2022-09-10T02:15:29.196Z,24.55
2022-09-10T02:18:17.249Z,24.52
2022-09-10T02:20:46.171Z,24.46
2022-09-10T02:23:19.019Z,24.51
2022-09-10T02:25:48.795Z,24.47
2022-09-10T02:28:17.024Z,24.45
2022-09-10T02:30:45.641Z,24.44
2022-09-10T02:33:16.539Z,24.51
2022-09-10T02:35:44.372Z,24.44
2022-09-10T02:38:14.100Z,24.44
2022-09-10T02:40:43.603Z,24.33
2022-09-10T02:43:11.216Z,24.33
2022-09-10T02:45:40.476Z,24.30
2022-09-10T02:48:08.072Z,24.36
2022-09-10T02:50:37.110Z,24.33
2022-09-10T02:53:06.337Z,24.37
2022-09-10T02:55:33.912Z,24.30
2022-09-10T02:58:01.442Z,24.31
2022-09-10T03:00:29.374Z,24.34
2022-09-10T03:03:02.333Z,24.33
2022-09-10T03:05:30.664Z,24.31
2022-09-10T03:07:58.412Z,24.27
2022-09-10T03:10:26.432Z,24.26
2022-09-10T03:12:54.956Z,24.10
2022-09-10T03:15:23.724Z,24.10
2022-09-10T03:17:52.153Z,24.14
2022-09-10T03:20:24.488Z,24.10
2022-09-10T03:22:53.521Z,24.12
2022-09-10T03:25:22.923Z,24.11
2022-09-10T03:27:50.239Z,24.04
2022-09-10T03:30:17.964Z,23.97
2022-09-10T03:32:46.107Z,23.88
2022-09-10T03:35:16.238Z,23.93
2022-09-10T03:37:44.762Z,23.96
2022-09-10T03:40:12.585Z,23.94
2022-09-10T03:42:39.950Z,23.82
2022-09-10T03:45:08.334Z,23.79
2022-09-10T03:47:39.069Z,23.85
2022-09-10T03:50:07.876Z,23.79
2022-09-10T03:52:36.957Z,23.86
2022-09-10T03:55:04.981Z,23.92
2022-09-10T03:57:33.064Z,23.89
2022-09-10T04:00:00.609Z,23.86
2022-09-10T04:02:28.864Z,23.88
2022-09-10T04:04:57.014Z,23.89
2022-09-10T04:07:24.431Z,23.92
2022-09-10T04:09:52.541Z,23.99
2022-09-10T04:12:20.206Z,24.05
2022-09-10T04:14:49.016Z,24.16
2022-09-10T04:17:18.237Z,24.07
2022-09-10T04:19:46.475Z,24.01
2022-09-10T04:22:14.335Z,24.10
2022-09-10T04:24:42.329Z,24.16
2022-09-10T04:27:10.257Z,24.12
2022-09-10T04:29:38.952Z,23.95
2022-09-10T04:32:07.026Z,23.96
2022-09-10T04:34:37.852Z,23.86
2022-09-10T04:37:08.656Z,23.95
2022-09-10T04:39:37.756Z,23.85
2022-09-10T04:42:07.052Z,23.87
2022-09-10T04:44:34.654Z,23.87
2022-09-10T04:47:03.204Z,23.70
2022-09-10T04:49:31.189Z,23.80
2022-09-10T04:51:58.674Z,23.77
2022-09-10T04:54:27.109Z,23.76
2022-09-10T04:56:55.660Z,23.78
2022-09-10T04:59:24.620Z,23.78
2022-09-10T05:02:02.299Z,23.72
2022-09-10T05:04:37.684Z,23.72
2022-09-10T05:07:16.315Z,23.49
2022-09-10T05:09:49.785Z,23.49
2022-09-10T05:12:20.239Z,23.56
2022-09-10T05:14:49.586Z,23.47
2022-09-10T05:17:18.091Z,23.46
2022-09-10T05:19:48.896Z,23.48
2022-09-10T05:22:16.964Z,23.52
2022-09-10T05:24:45.611Z,23.43
2022-09-10T05:27:13.977Z,23.43
2022-09-10T05:29:41.736Z,23.40
2022-09-10T05:32:10.861Z,23.41
2022-09-10T05:34:40.297Z,23.31
2022-09-10T05:37:09.316Z,23.33
2022-09-10T05:39:38.077Z,23.40
2022-09-10T05:42:07.713Z,23.39
2022-09-10T05:44:37.371Z,23.48
2022-09-10T05:47:05.093Z,23.49
2022-09-10T05:49:35.752Z,23.49
2022-09-10T05:52:04.579Z,23.47
2022-09-10T05:54:32.309Z,23.50
2022-09-10T05:57:00.655Z,23.26
2022-09-10T05:59:30.261Z,23.34
2022-09-10T06:01:58.656Z,23.24
2022-09-10T06:04:27.959Z,23.29
2022-09-10T06:06:56.704Z,23.34
2022-09-10T06:09:25.119Z,23.43
2022-09-10T06:12:07.163Z,23.29
2022-09-10T06:14:36.282Z,23.32
2022-09-10T06:17:04.962Z,23.39
2022-09-10T06:19:33.636Z,23.49
2022-09-10T06:22:01.333Z,23.56
2022-09-10T06:24:31.550Z,23.69
2022-09-10T06:27:00.240Z,23.69
2022-09-10T06:29:30.684Z,23.71
2022-09-10T06:32:01.106Z,23.84
2022-09-10T06:34:29.082Z,23.89
2022-09-10T06:36:58.873Z,23.99
2022-09-10T06:39:29.103Z,23.91
2022-09-10T06:42:00.086Z,23.91
2022-09-10T06:44:51.056Z,23.95
2022-09-10T06:48:06.781Z,23.99
2022-09-10T06:50:21.211Z,23.98
2022-09-10T06:52:50.863Z,24.07
2022-09-10T06:55:24.075Z,24.14
2022-09-10T06:57:52.185Z,24.21
2022-09-10T07:00:21.074Z,24.32
2022-09-10T07:02:52.729Z,24.42
2022-09-10T07:05:22.133Z,24.24
2022-09-10T07:07:53.259Z,24.22
2022-09-10T07:10:21.832Z,24.36
2022-09-10T07:12:51.102Z,24.48
2022-09-10T07:15:20.586Z,24.59
2022-09-10T07:17:49.403Z,24.69
2022-09-10T07:20:17.731Z,24.82
2022-09-10T07:22:47.184Z,24.83
2022-09-10T07:25:16.115Z,24.90
2022-09-10T07:27:58.536Z,25.03
2022-09-10T07:30:26.591Z,25.16
2022-09-10T07:32:55.704Z,25.32
2022-09-10T07:35:27.453Z,25.52
2022-09-10T07:37:55.220Z,25.57
2022-09-10T07:40:23.925Z,25.65
2022-09-10T07:42:52.918Z,25.75
2022-09-10T07:45:23.953Z,25.80
2022-09-10T07:47:54.739Z,25.99
2022-09-10T07:50:22.496Z,26.05
2022-09-10T07:52:55.035Z,26.11
2022-09-10T07:55:24.947Z,26.22
2022-09-10T07:57:56.268Z,26.36
2022-09-10T08:00:25.616Z,26.55
2022-09-10T08:02:57.326Z,26.67
2022-09-10T08:05:29.142Z,26.63
2022-09-10T08:08:02.171Z,26.76
2022-09-10T08:10:30.000Z,26.75
2022-09-10T08:12:59.774Z,26.73
2022-09-10T08:15:27.074Z,26.84
2022-09-10T08:17:56.102Z,26.99
2022-09-10T08:20:25.622Z,27.05
2022-09-10T08:22:57.800Z,27.22
2022-09-10T08:25:29.476Z,27.35
2022-09-10T08:27:58.220Z,27.43
2022-09-10T08:30:26.210Z,27.61
2022-09-10T08:32:55.132Z,27.67
2022-09-10T08:35:22.640Z,27.73
2022-09-10T08:37:55.155Z,27.76
2022-09-10T08:40:26.598Z,27.72
2022-09-10T08:43:03.514Z,27.72
2022-09-10T08:45:36.480Z,27.64
2022-09-10T08:48:41.435Z,27.63
2022-09-10T08:51:25.511Z,27.51
2022-09-10T08:54:17.278Z,27.51
2022-09-10T08:56:51.598Z,27.51
2022-09-10T08:59:38.161Z,27.58
2022-09-10T09:02:47.177Z,27.58
2022-09-10T09:05:20.704Z,27.55
2022-09-10T09:07:52.885Z,27.56
2022-09-10T09:10:26.457Z,27.56
2022-09-10T09:13:26.993Z,27.56
2022-09-10T09:16:10.958Z,27.60
2022-09-10T09:19:02.985Z,27.70
2022-09-10T09:21:40.153Z,27.65
2022-09-10T09:24:22.809Z,27.70
2022-09-10T09:27:02.229Z,27.69
2022-09-10T09:29:38.501Z,27.81
2022-09-10T09:32:11.017Z,27.91
2022-09-10T09:34:50.883Z,27.89
2022-09-10T09:37:24.994Z,27.95
2022-09-10T09:39:59.974Z,27.96
2022-09-10T09:42:41.011Z,27.92
2022-09-10T09:45:35.365Z,27.85
2022-09-10T09:48:04.995Z,27.90
2022-09-10T09:50:36.021Z,27.97
2022-09-10T09:53:04.217Z,27.99
2022-09-10T09:55:46.565Z,28.11
2022-09-10T09:58:22.088Z,28.19
2022-09-10T10:01:06.227Z,28.25
2022-09-10T10:03:53.870Z,28.27
2022-09-10T10:06:28.064Z,28.39
2022-09-10T10:09:20.536Z,28.59
2022-09-10T10:11:56.216Z,28.64
2022-09-10T10:14:28.871Z,28.73
2022-09-10T10:17:00.532Z,28.82
2022-09-10T10:19:40.539Z,28.90
2022-09-10T10:22:20.449Z,28.97
2022-09-10T10:24:50.629Z,29.03
2022-09-10T10:27:20.201Z,29.18
2022-09-10T10:29:57.600Z,29.04
2022-09-10T10:32:40.190Z,29.02
2022-09-10T10:35:29.794Z,29.17
2022-09-10T10:38:19.302Z,29.19
2022-09-10T10:41:04.066Z,29.17
2022-09-10T10:43:37.489Z,28.98
2022-09-10T10:46:20.913Z,29.08
2022-09-10T10:48:48.532Z,28.96
2022-09-10T10:51:32.456Z,28.96
2022-09-10T10:54:06.978Z,29.04
2022-09-10T10:56:56.712Z,28.96
2022-09-10T10:59:46.329Z,29.13
2022-09-10T11:02:21.983Z,29.15
2022-09-10T11:04:55.145Z,29.06
2022-09-10T11:07:40.513Z,29.14
2022-09-10T11:10:54.981Z,29.16
2022-09-10T11:13:32.079Z,29.19
2022-09-10T11:16:20.511Z,29.16
2022-09-10T11:18:54.388Z,29.23
2022-09-10T11:21:31.899Z,29.25
2022-09-10T11:24:25.170Z,29.33
2022-09-10T11:27:03.644Z,29.35
2022-09-10T11:29:40.977Z,29.37
2022-09-10T11:32:30.785Z,29.41
2022-09-10T11:35:09.396Z,29.38
2022-09-10T11:37:45.862Z,29.42
2022-09-10T11:40:44.024Z,29.43
2022-09-10T11:43:15.918Z,29.37
2022-09-10T11:45:53.895Z,29.41
2022-09-10T11:49:05.564Z,29.36
2022-09-10T11:51:38.673Z,29.32
2022-09-10T11:54:13.963Z,29.38
2022-09-10T11:57:10.349Z,29.33
2022-09-10T12:00:12.050Z,29.42
2022-09-10T12:02:51.679Z,29.33
2022-09-10T12:05:30.527Z,29.32
2022-09-10T12:08:15.368Z,29.30
2022-09-10T12:11:01.305Z,29.39
2022-09-10T12:13:28.694Z,29.44
2022-09-10T12:16:00.189Z,29.38
2022-09-10T12:18:37.042Z,29.45
2022-09-10T12:21:34.750Z,29.57
2022-09-10T12:24:07.560Z,29.54
2022-09-10T12:26:45.618Z,29.58
2022-09-10T12:29:29.875Z,29.67
2022-09-10T12:32:12.587Z,29.74
2022-09-10T12:34:41.024Z,29.83
2022-09-10T12:37:21.494Z,29.66
2022-09-10T12:39:50.166Z,29.69
2022-09-10T12:42:28.411Z,29.71
2022-09-10T12:44:56.602Z,29.75
2022-09-10T12:47:40.431Z,29.83
2022-09-10T12:50:22.006Z,29.82
2022-09-10T12:52:51.839Z,29.76
2022-09-10T12:55:22.365Z,29.74
2022-09-10T12:58:24.227Z,29.79
2022-09-10T13:00:54.748Z,29.82
2022-09-10T13:03:38.396Z,29.73
2022-09-10T13:06:07.930Z,29.67
2022-09-10T13:08:44.095Z,29.73
2022-09-10T13:11:14.945Z,29.81
2022-09-10T13:13:51.284Z,29.80
2022-09-10T13:16:39.233Z,29.72
2022-09-10T13:19:19.108Z,29.71
2022-09-10T13:21:51.588Z,29.69
2022-09-10T13:24:34.763Z,29.73
2022-09-10T13:27:35.229Z,29.68
2022-09-10T13:30:19.688Z,29.68
2022-09-10T13:33:07.469Z,29.57
2022-09-10T13:35:55.445Z,29.51
2022-09-10T13:38:29.150Z,29.49
2022-09-10T13:41:21.637Z,29.52
2022-09-10T13:44:08.145Z,29.52
2022-09-10T13:46:45.514Z,29.49
2022-09-10T13:49:57.930Z,29.60
2022-09-10T13:52:33.449Z,29.67
2022-09-10T13:55:03.282Z,29.64
2022-09-10T13:57:41.252Z,29.70
2022-09-10T14:00:25.967Z,29.84
2022-09-10T14:02:56.795Z,29.86
2022-09-10T14:05:48.570Z,29.76
2022-09-10T14:08:26.295Z,29.75
2022-09-10T14:11:08.563Z,29.84
2022-09-10T14:14:01.825Z,29.59
2022-09-10T14:16:44.481Z,29.61
2022-09-10T14:19:26.035Z,29.51
2022-09-10T14:22:22.766Z,29.44
2022-09-10T14:24:57.081Z,29.43
2022-09-10T14:27:28.296Z,29.39
2022-09-10T14:29:57.384Z,29.33
2022-09-10T14:32:33.631Z,29.19
2022-09-10T14:35:36.407Z,29.23
2022-09-10T14:38:09.514Z,29.11
2022-09-10T14:40:38.226Z,29.01
2022-09-10T14:43:27.637Z,29.00
2022-09-10T14:45:55.361Z,28.97
2022-09-10T14:48:28.513Z,28.88
2022-09-10T14:51:18.708Z,28.85
2022-09-10T14:53:51.049Z,28.86
2022-09-10T14:56:35.946Z,28.86
2022-09-10T14:59:12.331Z,28.91
2022-09-10T15:01:42.956Z,29.09
2022-09-10T15:04:18.468Z,29.19
2022-09-10T15:06:46.151Z,29.21
2022-09-10T15:09:15.273Z,29.25
2022-09-10T15:11:59.438Z,29.26
2022-09-10T15:14:27.183Z,29.33
2022-09-10T15:16:55.798Z,29.39
2022-09-10T15:19:24.236Z,29.48
2022-09-10T15:21:52.955Z,29.55
2022-09-10T15:24:22.728Z,29.66
2022-09-10T15:26:50.817Z,29.76
2022-09-10T15:29:18.711Z,29.87
2022-09-10T15:31:46.147Z,29.98
2022-09-10T15:34:14.636Z,29.99
2022-09-10T15:36:42.672Z,30.11
2022-09-10T15:39:13.668Z,29.99
2022-09-10T15:41:43.424Z,29.85
2022-09-10T15:44:16.154Z,29.72
2022-09-10T15:46:45.607Z,29.57
2022-09-10T15:49:13.367Z,29.53
2022-09-10T15:51:42.922Z,29.52
2022-09-10T15:54:11.693Z,29.41
2022-09-10T15:56:40.245Z,29.47
2022-09-10T15:59:10.678Z,29.39
2022-09-10T16:01:39.025Z,29.37
2022-09-10T16:04:07.367Z,29.46
2022-09-10T16:06:39.964Z,29.37
2022-09-10T16:09:10.566Z,29.32
2022-09-10T16:11:40.510Z,29.29
2022-09-10T16:14:12.140Z,29.29
2022-09-10T16:16:41.355Z,29.20
2022-09-10T16:19:11.092Z,29.18
2022-09-10T16:21:39.718Z,29.21
2022-09-10T16:24:08.224Z,29.28
2022-09-10T16:26:39.983Z,29.22
2022-09-10T16:29:13.485Z,29.21
2022-09-10T16:31:41.674Z,29.30
2022-09-10T16:34:16.689Z,29.42
2022-09-10T16:36:45.264Z,29.41
2022-09-10T16:39:15.284Z,29.42
2022-09-10T16:41:48.180Z,29.51
2022-09-10T16:44:17.788Z,29.39
2022-09-10T16:46:46.556Z,29.42
2022-09-10T16:49:15.504Z,29.38
2022-09-10T16:51:47.459Z,29.45
2022-09-10T16:54:19.691Z,29.54
2022-09-10T16:56:48.505Z,29.58
2022-09-10T16:59:19.019Z,29.65
2022-09-10T17:01:48.654Z,29.64
2022-09-10T17:04:25.949Z,29.69
2022-09-10T17:06:59.628Z,29.61
2022-09-10T17:09:27.288Z,29.55
2022-09-10T17:11:55.534Z,29.45
2022-09-10T17:14:23.288Z,29.42
2022-09-10T17:16:52.722Z,29.45
2022-09-10T17:19:23.902Z,29.41
2022-09-10T17:21:56.109Z,29.38
2022-09-10T17:24:27.518Z,29.37
2022-09-10T17:26:59.026Z,29.32
2022-09-10T17:29:26.949Z,29.30
2022-09-10T17:31:58.900Z,29.26
2022-09-10T17:34:27.591Z,29.25
2022-09-10T17:36:55.295Z,29.14
2022-09-10T17:39:29.700Z,29.14
2022-09-10T17:41:58.643Z,29.10
2022-09-10T17:44:27.224Z,29.09
2022-09-10T17:46:55.706Z,29.05
2022-09-10T17:49:24.302Z,29.02
2022-09-10T17:51:55.777Z,29.03
2022-09-10T17:54:23.900Z,29.01
2022-09-10T17:56:52.428Z,28.92
2022-09-10T17:59:22.635Z,28.91
2022-09-10T18:01:52.994Z,28.92
2022-09-10T18:04:23.254Z,28.87
2022-09-10T18:07:01.535Z,28.80
2022-09-10T18:09:29.595Z,28.74
2022-09-10T18:12:03.797Z,28.75
2022-09-10T18:14:31.532Z,28.73
2022-09-10T18:16:59.228Z,28.70
2022-09-10T18:19:27.043Z,28.65
2022-09-10T18:21:54.739Z,28.66
2022-09-10T18:24:28.454Z,28.67
2022-09-10T18:27:03.916Z,28.65
2022-09-10T18:29:34.720Z,28.58
2022-09-10T18:32:02.987Z,28.56
2022-09-10T18:34:31.615Z,28.56
2022-09-10T18:37:01.727Z,28.54
2022-09-10T18:39:33.208Z,28.51
2022-09-10T18:42:02.698Z,28.50
2022-09-10T18:44:37.433Z,28.45
2022-09-10T18:47:27.956Z,28.42
2022-09-10T18:49:59.543Z,28.38
2022-09-10T18:52:27.530Z,28.38
2022-09-10T18:54:55.221Z,28.41
2022-09-10T18:57:23.098Z,28.37
2022-09-10T18:59:55.428Z,28.36
2022-09-10T19:02:24.252Z,28.36
2022-09-10T19:05:10.245Z,28.34
2022-09-10T19:07:58.253Z,28.31
2022-09-10T19:10:25.842Z,28.32
2022-09-10T19:12:56.344Z,28.32
2022-09-10T19:15:23.892Z,28.30
2022-09-10T19:17:51.393Z,28.30
2022-09-10T19:20:18.968Z,28.30
2022-09-10T19:22:47.110Z,28.30
2022-09-10T19:25:14.652Z,28.32
2022-09-10T19:27:42.737Z,28.33
2022-09-10T19:30:11.026Z,28.33
2022-09-10T19:32:38.762Z,28.31
2022-09-10T19:35:06.824Z,28.29
2022-09-10T19:37:35.425Z,28.29
2022-09-10T19:40:03.266Z,28.33
2022-09-10T19:42:31.054Z,28.35
2022-09-10T19:44:58.432Z,28.38
2022-09-10T19:47:25.865Z,28.43
2022-09-10T19:49:54.818Z,28.44
2022-09-10T19:52:24.858Z,28.42
2022-09-10T19:54:52.293Z,28.41
2022-09-10T19:57:21.981Z,28.40
2022-09-10T19:59:49.449Z,28.39
2022-09-10T20:02:17.206Z,28.39
2022-09-10T20:04:48.441Z,28.36
2022-09-10T20:07:16.802Z,28.33
2022-09-10T20:09:44.880Z,28.28
2022-09-10T20:12:12.520Z,28.31
2022-09-10T20:14:39.884Z,28.27
2022-09-10T20:17:08.082Z,28.17
2022-09-10T20:19:35.432Z,28.23
2022-09-10T20:22:03.291Z,28.22
2022-09-10T20:24:30.824Z,28.19
2022-09-10T20:26:58.747Z,28.18
2022-09-10T20:29:26.748Z,28.21
2022-09-10T20:31:54.283Z,28.19
2022-09-10T20:34:24.164Z,28.13
2022-09-10T20:36:52.461Z,28.11
2022-09-10T20:39:22.800Z,28.12
2022-09-10T20:41:50.694Z,28.10
2022-09-10T20:44:20.325Z,28.07
2022-09-10T20:46:47.927Z,28.03
2022-09-10T20:49:16.630Z,27.98
2022-09-10T20:51:44.909Z,28.00
2022-09-10T20:54:15.614Z,28.00
2022-09-10T20:56:44.402Z,27.98
2022-09-10T20:59:13.150Z,27.90
2022-09-10T21:01:41.531Z,27.93
2022-09-10T21:04:09.170Z,27.90
2022-09-10T21:06:36.913Z,27.91
2022-09-10T21:09:05.524Z,27.91
2022-09-10T21:11:35.308Z,27.84
2022-09-10T21:14:05.001Z,27.88
2022-09-10T21:16:37.057Z,27.85
2022-09-10T21:19:12.216Z,27.80
2022-09-10T21:21:41.081Z,27.83
2022-09-10T21:24:20.544Z,27.78
2022-09-10T21:26:49.550Z,27.72
2022-09-10T21:29:21.668Z,27.68
2022-09-10T21:31:54.960Z,27.72
2022-09-10T21:34:23.964Z,27.74
2022-09-10T21:36:51.850Z,27.79
2022-09-10T21:39:20.255Z,27.80
2022-09-10T21:41:50.155Z,27.81
2022-09-10T21:44:23.478Z,27.83
2022-09-10T21:46:52.218Z,27.79
2022-09-10T21:49:21.989Z,27.76
2022-09-10T21:51:49.954Z,27.76
2022-09-10T21:54:21.207Z,27.77
2022-09-10T21:56:49.668Z,27.76
2022-09-10T21:59:17.620Z,27.78
2022-09-10T22:01:47.578Z,27.77
2022-09-10T22:04:21.493Z,27.76
2022-09-10T22:06:50.906Z,27.77
2022-09-10T22:09:18.637Z,27.78
2022-09-10T22:11:50.427Z,27.81
2022-09-10T22:14:21.793Z,27.76
2022-09-10T22:16:50.005Z,27.74
2022-09-10T22:19:20.324Z,27.70
2022-09-10T22:21:48.218Z,27.62
2022-09-10T22:24:17.631Z,27.68
2022-09-10T22:26:46.309Z,27.70
2022-09-10T22:29:17.428Z,27.71
2022-09-10T22:31:44.974Z,27.67
2022-09-10T22:34:16.951Z,27.68
2022-09-10T22:36:46.580Z,27.70
2022-09-10T22:39:17.518Z,27.70
2022-09-10T22:41:46.498Z,27.74
2022-09-10T22:44:14.043Z,27.70
2022-09-10T22:46:41.880Z,27.68
2022-09-10T22:49:10.296Z,27.67
2022-09-10T22:51:43.724Z,27.69
2022-09-10T22:54:12.449Z,27.69
2022-09-10T22:56:40.456Z,27.67
2022-09-10T22:59:12.191Z,27.67
2022-09-10T23:01:48.707Z,27.66
2022-09-10T23:04:16.714Z,27.66
2022-09-10T23:06:44.336Z,27.63
2022-09-10T23:09:17.006Z,27.62
2022-09-10T23:11:46.527Z,27.66
2022-09-10T23:14:22.482Z,27.62
2022-09-10T23:16:52.172Z,27.63
2022-09-10T23:19:22.410Z,27.65
2022-09-10T23:21:55.500Z,27.62
2022-09-10T23:24:26.683Z,27.60
2022-09-10T23:26:54.619Z,27.57
2022-09-10T23:29:25.530Z,27.50
2022-09-10T23:31:54.742Z,27.53
2022-09-10T23:34:23.203Z,27.49
2022-09-10T23:36:51.932Z,27.52
2022-09-10T23:39:21.801Z,27.55
2022-09-10T23:41:55.687Z,27.54
2022-09-10T23:44:23.757Z,27.50
2022-09-10T23:46:51.450Z,27.53
2022-09-10T23:49:20.593Z,27.53
2022-09-10T23:51:49.333Z,27.55
2022-09-10T23:54:17.420Z,27.55
2022-09-10T23:56:45.101Z,27.53
2022-09-10T23:59:13.194Z,27.53
